createdAt,value
2024-03-18T00:00:45.059Z,619.00
2024-03-18T00:01:45.075Z,620.00
2024-03-18T00:02:45.064Z,621.00
2024-03-18T00:03:45.060Z,624.00
2024-03-18T00:04:45.098Z,624.00
2024-03-18T00:05:50.108Z,621.00
2024-03-18T00:06:45.055Z,621.00
2024-03-18T00:07:45.086Z,622.00
2024-03-18T00:08:45.049Z,622.00
2024-03-18T00:09:45.062Z,623.00
2024-03-18T00:10:45.097Z,620.00
2024-03-18T00:11:45.089Z,623.00
2024-03-18T00:12:45.047Z,622.00
2024-03-18T00:13:45.121Z,624.00
2024-03-18T00:14:45.216Z,617.00
2024-03-18T00:15:45.323Z,619.00
2024-03-18T00:16:45.434Z,624.00
2024-03-18T00:17:45.500Z,622.00
2024-03-18T00:18:45.607Z,621.00
2024-03-18T00:19:45.715Z,621.00
2024-03-18T00:20:45.809Z,623.00
2024-03-18T00:21:45.866Z,623.00
2024-03-18T00:22:45.969Z,620.00
2024-03-18T00:23:46.068Z,625.00
2024-03-18T00:24:46.154Z,624.00
2024-03-18T00:25:46.272Z,621.00
2024-03-18T00:26:46.362Z,620.00
2024-03-18T00:27:46.447Z,621.00
2024-03-18T00:28:46.538Z,625.00
2024-03-18T00:29:46.649Z,621.00
2024-03-18T00:30:47.177Z,623.00
2024-03-18T00:31:46.785Z,625.00
2024-03-18T00:32:46.857Z,624.00
2024-03-18T00:33:46.881Z,622.00
2024-03-18T00:34:46.907Z,621.00
2024-03-18T00:35:50.335Z,618.00
2024-03-18T00:36:46.950Z,618.00
2024-03-18T00:37:46.965Z,619.00
2024-03-18T00:38:47.004Z,620.00
2024-03-18T00:39:46.985Z,619.00
2024-03-18T00:40:46.984Z,624.00
2024-03-18T00:41:47.016Z,623.00
2024-03-18T00:42:46.965Z,621.00
2024-03-18T00:43:46.963Z,622.00
2024-03-18T00:44:46.990Z,625.00
2024-03-18T00:45:46.977Z,617.00
2024-03-18T00:46:47.027Z,618.00
2024-03-18T00:47:47.004Z,617.00
2024-03-18T00:48:46.994Z,614.00
2024-03-18T00:49:46.997Z,616.00
2024-03-18T00:50:46.998Z,617.00
2024-03-18T00:51:47.005Z,619.00
2024-03-18T00:52:46.982Z,614.00
2024-03-18T00:53:47.019Z,611.00
2024-03-18T00:54:47.003Z,616.00
2024-03-18T00:55:52.038Z,612.00
2024-03-18T00:56:46.990Z,612.00
2024-03-18T00:57:46.991Z,612.00
2024-03-18T00:58:47.007Z,612.00
2024-03-18T00:59:47.013Z,613.00
2024-03-18T01:00:46.994Z,612.00
2024-03-18T01:01:47.003Z,616.00
2024-03-18T01:02:46.984Z,612.00
2024-03-18T01:03:47.081Z,610.00
2024-03-18T01:04:47.201Z,613.00
2024-03-18T01:05:47.309Z,611.00
2024-03-18T01:06:47.390Z,607.00
2024-03-18T01:07:47.589Z,607.00
2024-03-18T01:08:47.630Z,607.00
2024-03-18T01:09:47.716Z,604.00
2024-03-18T01:10:47.866Z,607.00
2024-03-18T01:11:47.962Z,608.00
2024-03-18T01:12:48.028Z,609.00
2024-03-18T01:13:48.137Z,607.00
2024-03-18T01:14:48.224Z,609.00
2024-03-18T01:15:48.362Z,606.00
2024-03-18T01:16:48.444Z,607.00
2024-03-18T01:17:48.513Z,607.00
2024-03-18T01:18:48.593Z,606.00
2024-03-18T01:19:48.732Z,604.00
2024-03-18T01:20:48.785Z,606.00
2024-03-18T01:21:48.907Z,602.00
2024-03-18T01:22:48.974Z,605.00
2024-03-18T01:23:49.074Z,603.00
2024-03-18T01:24:49.168Z,606.00
2024-03-18T01:25:49.301Z,607.00
2024-03-18T01:26:49.355Z,601.00
2024-03-18T01:27:49.443Z,603.00
2024-03-18T01:28:49.530Z,603.00
2024-03-18T01:29:49.619Z,604.00
2024-03-18T01:30:49.719Z,606.00
2024-03-18T01:31:49.809Z,607.00
2024-03-18T01:32:53.650Z,607.00
2024-03-18T01:33:49.861Z,608.00
2024-03-18T01:34:49.904Z,609.00
2024-03-18T01:35:50.007Z,602.00
2024-03-18T01:36:49.882Z,608.00
2024-03-18T01:37:49.909Z,608.00
2024-03-18T01:38:49.879Z,604.00
2024-03-18T01:39:49.882Z,607.00
2024-03-18T01:40:49.899Z,607.00
2024-03-18T01:41:49.902Z,606.00
2024-03-18T01:42:49.901Z,604.00
2024-03-18T01:43:49.913Z,609.00
2024-03-18T01:44:49.921Z,608.00
2024-03-18T01:45:49.873Z,608.00
2024-03-18T01:46:49.917Z,606.00
2024-03-18T01:47:49.885Z,605.00
2024-03-18T01:48:49.910Z,605.00
2024-03-18T01:49:49.891Z,601.00
2024-03-18T01:50:49.917Z,605.00
2024-03-18T01:51:49.882Z,604.00
2024-03-18T01:52:49.982Z,606.00
2024-03-18T01:53:49.897Z,607.00
2024-03-18T01:54:49.899Z,600.00
2024-03-18T01:55:49.898Z,607.00
2024-03-18T01:56:49.909Z,604.00
2024-03-18T01:57:49.900Z,604.00
2024-03-18T01:58:49.940Z,605.00
2024-03-18T01:59:49.933Z,605.00
2024-03-18T02:00:49.935Z,603.00
2024-03-18T02:01:49.959Z,603.00
2024-03-18T02:02:50.036Z,606.00
2024-03-18T02:03:50.051Z,604.00
2024-03-18T02:04:50.141Z,603.00
2024-03-18T02:05:50.160Z,602.00
2024-03-18T02:06:50.215Z,604.00
2024-03-18T02:07:50.275Z,600.00
2024-03-18T02:08:50.301Z,607.00
2024-03-18T02:09:50.352Z,606.00
2024-03-18T02:10:50.407Z,603.00
2024-03-18T02:11:50.449Z,602.00
2024-03-18T02:12:50.494Z,603.00
2024-03-18T02:13:50.545Z,604.00
2024-03-18T02:14:50.580Z,603.00
2024-03-18T02:15:50.614Z,605.00
2024-03-18T02:16:50.697Z,602.00
2024-03-18T02:17:50.697Z,605.00
2024-03-18T02:18:50.758Z,604.00
2024-03-18T02:19:50.791Z,605.00
2024-03-18T02:20:50.837Z,607.00
2024-03-18T02:21:50.887Z,601.00
2024-03-18T02:22:50.973Z,606.00
2024-03-18T02:23:51.005Z,607.00
2024-03-18T02:24:51.011Z,606.00
2024-03-18T02:25:51.069Z,606.00
2024-03-18T02:26:51.095Z,606.00
2024-03-18T02:27:51.132Z,607.00
2024-03-18T02:29:00.062Z,607.00
2024-03-18T02:29:51.199Z,607.00
2024-03-18T02:30:51.194Z,608.00
2024-03-18T02:31:51.180Z,610.00
2024-03-18T02:32:51.186Z,610.00
2024-03-18T02:33:51.179Z,613.00
2024-03-18T02:34:51.193Z,612.00
2024-03-18T02:35:51.196Z,610.00
2024-03-18T02:36:51.195Z,607.00
2024-03-18T02:37:51.215Z,612.00
2024-03-18T02:38:51.221Z,610.00
2024-03-18T02:39:51.225Z,609.00
2024-03-18T02:40:51.257Z,608.00
2024-03-18T02:41:51.227Z,610.00
2024-03-18T02:42:51.233Z,608.00
2024-03-18T02:43:51.248Z,610.00
2024-03-18T02:44:51.244Z,607.00
2024-03-18T02:45:51.225Z,604.00
2024-03-18T02:46:51.306Z,611.00
2024-03-18T02:47:51.275Z,609.00
2024-03-18T02:48:51.239Z,604.00
2024-03-18T02:49:51.254Z,610.00
2024-03-18T02:50:51.317Z,611.00
2024-03-18T02:51:51.247Z,606.00
2024-03-18T02:52:51.262Z,606.00
2024-03-18T02:53:51.252Z,605.00
2024-03-18T02:54:51.264Z,608.00
2024-03-18T02:55:51.278Z,610.00
2024-03-18T02:56:51.243Z,609.00
2024-03-18T02:57:51.247Z,607.00
2024-03-18T02:58:51.253Z,608.00
2024-03-18T02:59:51.248Z,608.00
2024-03-18T03:00:51.265Z,609.00
2024-03-18T03:01:51.278Z,602.00
2024-03-18T03:02:51.262Z,610.00
2024-03-18T03:03:51.263Z,605.00
2024-03-18T03:04:51.284Z,610.00
2024-03-18T03:05:51.280Z,611.00
2024-03-18T03:06:51.291Z,609.00
2024-03-18T03:07:51.305Z,608.00
2024-03-18T03:08:51.275Z,610.00
2024-03-18T03:09:51.298Z,612.00
2024-03-18T03:10:51.290Z,608.00
2024-03-18T03:11:51.278Z,609.00
2024-03-18T03:12:51.284Z,602.00
2024-03-18T03:13:51.300Z,607.00
2024-03-18T03:14:51.297Z,608.00
2024-03-18T03:15:51.300Z,609.00
2024-03-18T03:16:51.321Z,607.00
2024-03-18T03:17:51.362Z,609.00
2024-03-18T03:18:51.368Z,613.00
2024-03-18T03:19:51.372Z,608.00
2024-03-18T03:20:51.386Z,605.00
2024-03-18T03:21:51.380Z,605.00
2024-03-18T03:22:51.372Z,607.00
2024-03-18T03:23:51.364Z,606.00
2024-03-18T03:24:51.361Z,604.00
2024-03-18T03:25:51.410Z,606.00
2024-03-18T03:26:51.379Z,610.00
2024-03-18T03:27:51.369Z,609.00
2024-03-18T03:28:51.380Z,610.00
2024-03-18T03:29:51.396Z,610.00
2024-03-18T03:30:51.423Z,611.00
2024-03-18T03:31:51.471Z,609.00
2024-03-18T03:32:51.490Z,610.00
2024-03-18T03:33:51.524Z,610.00
2024-03-18T03:34:51.588Z,607.00
2024-03-18T03:35:51.641Z,612.00
2024-03-18T03:36:51.705Z,609.00
2024-03-18T03:37:51.722Z,606.00
2024-03-18T03:38:51.771Z,610.00
2024-03-18T03:39:51.771Z,609.00
2024-03-18T03:40:52.209Z,610.00
2024-03-18T03:41:51.843Z,609.00
2024-03-18T03:42:52.004Z,613.00
2024-03-18T03:43:51.952Z,609.00
2024-03-18T03:44:51.967Z,607.00
2024-03-18T03:45:52.001Z,613.00
2024-03-18T03:46:52.040Z,605.00
2024-03-18T03:47:52.065Z,611.00
2024-03-18T03:48:52.105Z,606.00
2024-03-18T03:49:52.155Z,606.00
2024-03-18T03:50:52.189Z,608.00
2024-03-18T03:51:52.214Z,613.00
2024-03-18T03:52:52.272Z,612.00
2024-03-18T03:53:52.287Z,607.00
2024-03-18T03:54:52.335Z,611.00
2024-03-18T03:55:52.372Z,604.00
2024-03-18T03:56:52.398Z,612.00
2024-03-18T03:57:52.442Z,610.00
2024-03-18T03:58:52.473Z,606.00
2024-03-18T03:59:52.505Z,610.00
2024-03-18T04:00:52.720Z,609.00
2024-03-18T04:01:52.594Z,611.00
2024-03-18T04:02:52.637Z,610.00
2024-03-18T04:03:52.653Z,613.00
2024-03-18T04:04:52.715Z,609.00
2024-03-18T04:05:52.760Z,608.00
2024-03-18T04:06:52.778Z,613.00
2024-03-18T04:07:52.844Z,607.00
2024-03-18T04:08:52.845Z,610.00
2024-03-18T04:09:52.889Z,609.00
2024-03-18T04:10:52.940Z,606.00
2024-03-18T04:11:52.991Z,610.00
2024-03-18T04:12:53.013Z,607.00
2024-03-18T04:13:53.035Z,605.00
2024-03-18T04:14:53.086Z,607.00
2024-03-18T04:15:53.138Z,610.00
2024-03-18T04:16:53.154Z,607.00
2024-03-18T04:17:53.187Z,610.00
2024-03-18T04:18:53.243Z,612.00
2024-03-18T04:19:53.266Z,609.00
2024-03-18T04:20:53.302Z,610.00
2024-03-18T04:21:53.336Z,610.00
2024-03-18T04:22:53.388Z,608.00
2024-03-18T04:23:53.407Z,608.00
2024-03-18T04:24:53.457Z,610.00
2024-03-18T04:25:53.495Z,610.00
2024-03-18T04:26:53.533Z,605.00
2024-03-18T04:27:53.570Z,610.00
2024-03-18T04:28:53.599Z,614.00
2024-03-18T04:29:53.640Z,607.00
2024-03-18T04:30:53.680Z,609.00
2024-03-18T04:31:53.747Z,607.00
2024-03-18T04:32:53.761Z,612.00
2024-03-18T04:33:53.787Z,610.00
2024-03-18T04:34:53.830Z,612.00
2024-03-18T04:35:53.884Z,610.00
2024-03-18T04:36:53.913Z,611.00
2024-03-18T04:37:53.965Z,608.00
2024-03-18T04:39:01.231Z,600.00
2024-03-18T04:40:01.224Z,600.00
2024-03-18T04:41:01.257Z,600.00
2024-03-18T04:42:01.241Z,600.00
2024-03-18T04:43:01.243Z,600.00
2024-03-18T04:44:01.317Z,601.00
2024-03-18T04:45:01.274Z,604.00
2024-03-18T04:46:01.262Z,602.00
2024-03-18T04:47:01.283Z,606.00
2024-03-18T04:48:01.292Z,602.00
2024-03-18T04:49:01.287Z,603.00
2024-03-18T04:50:01.324Z,601.00
2024-03-18T04:51:01.356Z,600.00
2024-03-18T04:52:01.430Z,601.00
2024-03-18T04:53:01.429Z,600.00
2024-03-18T04:54:01.435Z,605.00
2024-03-18T04:55:01.479Z,605.00
2024-03-18T04:56:01.536Z,604.00
2024-03-18T04:57:01.605Z,607.00
2024-03-18T04:58:01.670Z,606.00
2024-03-18T04:59:01.723Z,606.00
2024-03-18T05:00:01.820Z,604.00
2024-03-18T05:01:01.843Z,605.00
2024-03-18T05:02:01.896Z,606.00
2024-03-18T05:03:01.942Z,603.00
2024-03-18T05:04:02.002Z,608.00
2024-03-18T05:05:02.045Z,603.00
2024-03-18T05:06:02.089Z,604.00
2024-03-18T05:07:02.140Z,609.00
2024-03-18T05:08:02.218Z,606.00
2024-03-18T05:09:02.291Z,602.00
2024-03-18T05:10:02.351Z,607.00
2024-03-18T05:11:02.363Z,605.00
2024-03-18T05:12:02.417Z,606.00
2024-03-18T05:13:02.541Z,606.00
2024-03-18T05:14:02.535Z,608.00
2024-03-18T05:15:02.593Z,608.00
2024-03-18T05:16:02.654Z,603.00
2024-03-18T05:17:02.744Z,605.00
2024-03-18T05:18:02.768Z,603.00
2024-03-18T05:19:02.819Z,609.00
2024-03-18T05:20:02.877Z,607.00
2024-03-18T05:21:02.952Z,607.00
2024-03-18T05:22:03.001Z,605.00
2024-03-18T05:23:03.062Z,606.00
2024-03-18T05:24:04.874Z,603.00
2024-03-18T05:25:03.166Z,607.00
2024-03-18T05:26:03.173Z,601.00
2024-03-18T05:27:03.230Z,604.00
2024-03-18T05:28:03.240Z,606.00
2024-03-18T05:29:03.296Z,604.00
2024-03-18T05:30:03.302Z,605.00
2024-03-18T05:31:03.331Z,604.00
2024-03-18T05:32:03.377Z,609.00
2024-03-18T05:33:03.420Z,608.00
2024-03-18T05:34:03.431Z,607.00
2024-03-18T05:35:03.454Z,604.00
2024-03-18T05:36:03.501Z,605.00
2024-03-18T05:37:03.573Z,608.00
2024-03-18T05:38:03.614Z,606.00
2024-03-18T05:39:03.692Z,605.00
2024-03-18T05:40:03.733Z,608.00
2024-03-18T05:41:03.800Z,603.00
2024-03-18T05:42:03.855Z,602.00
2024-03-18T05:43:03.902Z,604.00
2024-03-18T05:44:03.964Z,606.00
2024-03-18T05:45:04.018Z,605.00
2024-03-18T05:46:04.086Z,606.00
2024-03-18T05:47:04.153Z,611.00
2024-03-18T05:48:06.018Z,606.00
2024-03-18T05:49:04.195Z,606.00
2024-03-18T05:50:04.203Z,604.00
2024-03-18T05:51:04.211Z,607.00
2024-03-18T05:52:04.198Z,607.00
2024-03-18T05:53:04.237Z,607.00
2024-03-18T05:54:04.218Z,609.00
2024-03-18T05:55:04.232Z,604.00
2024-03-18T05:56:04.211Z,606.00
2024-03-18T05:57:04.222Z,610.00
2024-03-18T05:58:04.201Z,606.00
2024-03-18T05:59:04.237Z,607.00
2024-03-18T06:00:04.224Z,606.00
2024-03-18T06:01:46.412Z,600.00
2024-03-18T06:02:46.423Z,600.00
2024-03-18T06:03:46.427Z,600.00
2024-03-18T06:04:46.431Z,600.00
2024-03-18T06:05:46.426Z,600.00
2024-03-18T06:06:46.436Z,605.00
2024-03-18T06:07:46.421Z,605.00
2024-03-18T06:08:46.433Z,602.00
2024-03-18T06:09:46.428Z,605.00
2024-03-18T06:10:46.449Z,602.00
2024-03-18T06:11:46.448Z,600.00
2024-03-18T06:12:46.455Z,604.00
2024-03-18T06:13:46.442Z,602.00
2024-03-18T06:14:48.012Z,605.00
2024-03-18T06:15:46.472Z,609.00
2024-03-18T06:16:46.482Z,604.00
2024-03-18T06:17:46.471Z,607.00
2024-03-18T06:18:46.450Z,606.00
2024-03-18T06:19:46.457Z,608.00
2024-03-18T06:20:46.481Z,605.00
2024-03-18T06:21:46.519Z,609.00
2024-03-18T06:22:46.466Z,603.00
2024-03-18T06:23:47.031Z,603.00
2024-03-18T06:24:46.476Z,607.00
2024-03-18T06:25:46.475Z,606.00
2024-03-18T06:26:46.503Z,605.00
2024-03-18T06:27:46.518Z,608.00
2024-03-18T06:28:46.497Z,602.00
2024-03-18T06:29:46.514Z,604.00
2024-03-18T06:30:46.499Z,604.00
2024-03-18T06:31:46.542Z,600.00
2024-03-18T06:32:46.543Z,602.00
2024-03-18T06:33:46.513Z,606.00
2024-03-18T06:34:50.032Z,610.00
2024-03-18T06:35:46.528Z,610.00
2024-03-18T06:36:46.548Z,606.00
2024-03-18T06:37:46.587Z,610.00
2024-03-18T06:38:46.518Z,607.00
2024-03-18T06:39:46.591Z,612.00
2024-03-18T06:40:46.539Z,609.00
2024-03-18T06:41:46.526Z,614.00
2024-03-18T06:42:46.551Z,611.00
2024-03-18T06:43:46.545Z,607.00
2024-03-18T06:44:46.572Z,614.00
2024-03-18T06:45:46.539Z,619.00
2024-03-18T06:46:46.545Z,614.00
2024-03-18T06:47:48.878Z,616.00
2024-03-18T06:48:46.536Z,616.00
2024-03-18T06:49:46.559Z,618.00
2024-03-18T06:50:46.554Z,624.00
2024-03-18T06:51:46.571Z,635.00
2024-03-18T06:52:46.556Z,652.00
2024-03-18T06:53:46.562Z,677.00
2024-03-18T06:54:46.566Z,734.00
2024-03-18T06:55:48.677Z,771.00
2024-03-18T06:56:46.569Z,790.00
2024-03-18T06:57:46.608Z,807.00
2024-03-18T06:58:46.599Z,826.00
2024-03-18T06:59:46.569Z,848.00
2024-03-18T07:00:46.555Z,871.00
2024-03-18T07:01:46.571Z,898.00
2024-03-18T07:02:46.592Z,921.00
2024-03-18T07:03:46.628Z,945.00
2024-03-18T07:04:46.695Z,974.00
2024-03-18T07:05:46.815Z,993.00
2024-03-18T07:06:46.937Z,1017.00
2024-03-18T07:07:47.057Z,1045.00
2024-03-18T07:08:47.180Z,1077.00
2024-03-18T07:09:47.296Z,1097.00
2024-03-18T07:10:47.500Z,1115.00
2024-03-18T07:11:47.550Z,1136.00
2024-03-18T07:12:47.695Z,1162.00
2024-03-18T07:13:47.784Z,1191.00
2024-03-18T07:14:47.894Z,1228.00
2024-03-18T07:15:48.001Z,1239.00
2024-03-18T07:16:48.093Z,1271.00
2024-03-18T07:17:48.206Z,1277.00
2024-03-18T07:18:48.336Z,1301.00
2024-03-18T07:20:02.876Z,1325.00
2024-03-18T07:20:50.629Z,1326.00
2024-03-18T07:21:48.422Z,1333.00
2024-03-18T07:22:48.453Z,1348.00
2024-03-18T07:23:48.446Z,1373.00
2024-03-18T07:24:48.421Z,1410.00
2024-03-18T07:25:48.442Z,1407.00
2024-03-18T07:26:48.448Z,1406.00
2024-03-18T07:27:48.422Z,1391.00
2024-03-18T07:28:48.427Z,1353.00
2024-03-18T07:29:48.435Z,1355.00
2024-03-18T07:30:48.450Z,1340.00
2024-03-18T07:31:48.473Z,1311.00
2024-03-18T07:32:48.419Z,1304.00
2024-03-18T07:33:48.428Z,1297.00
2024-03-18T07:34:53.274Z,1279.00
2024-03-18T07:35:49.445Z,1257.00
2024-03-18T07:36:48.448Z,1235.00
2024-03-18T07:37:48.442Z,1236.00
2024-03-18T07:38:48.425Z,1242.00
2024-03-18T07:39:48.450Z,1223.00
2024-03-18T07:40:48.443Z,1207.00
2024-03-18T07:41:48.487Z,1217.00
2024-03-18T07:42:48.440Z,1191.00
2024-03-18T07:43:48.493Z,1189.00
2024-03-18T07:44:48.520Z,1171.00
2024-03-18T07:45:48.708Z,1174.00
2024-03-18T07:46:48.736Z,1169.00
2024-03-18T07:47:48.848Z,1173.00
2024-03-18T07:48:48.941Z,1171.00
2024-03-18T07:49:49.067Z,1147.00
2024-03-18T07:50:49.146Z,1105.00
2024-03-18T07:51:49.313Z,1084.00
2024-03-18T07:52:49.392Z,1045.00
2024-03-18T07:53:49.524Z,1016.00
2024-03-18T07:54:49.676Z,1014.00
2024-03-18T07:55:49.829Z,974.00
2024-03-18T07:56:49.890Z,1096.00
2024-03-18T07:57:50.061Z,1119.00
2024-03-18T07:58:50.117Z,1129.00
2024-03-18T07:59:50.266Z,1112.00
2024-03-18T08:00:50.393Z,1120.00
2024-03-18T08:01:50.535Z,1130.00
2024-03-18T08:02:50.636Z,1146.00
2024-03-18T08:03:50.769Z,1150.00
2024-03-18T08:04:50.879Z,1157.00
2024-03-18T08:05:51.002Z,1165.00
2024-03-18T08:06:51.120Z,1182.00
2024-03-18T08:07:51.242Z,1195.00
2024-03-18T08:08:51.341Z,1203.00
2024-03-18T08:09:51.433Z,1212.00
2024-03-18T08:10:53.321Z,1231.00
2024-03-18T08:11:51.565Z,1232.00
2024-03-18T08:12:51.588Z,1253.00
2024-03-18T08:13:51.668Z,1257.00
2024-03-18T08:14:51.650Z,1265.00
2024-03-18T08:15:51.743Z,1271.00
2024-03-18T08:16:51.754Z,1296.00
2024-03-18T08:17:51.876Z,1308.00
2024-03-18T08:18:51.806Z,1309.00
2024-03-18T08:19:51.935Z,1324.00
2024-03-18T08:20:54.082Z,1334.00
2024-03-18T08:21:51.993Z,1340.00
2024-03-18T08:22:52.053Z,1348.00
2024-03-18T08:23:52.143Z,1358.00
2024-03-18T08:24:52.183Z,1375.00
2024-03-18T08:25:52.295Z,1381.00
2024-03-18T08:26:52.423Z,1384.00
2024-03-18T08:27:52.446Z,1398.00
2024-03-18T08:28:52.521Z,1396.00
2024-03-18T08:29:52.585Z,1406.00
2024-03-18T08:30:52.697Z,1429.00
2024-03-18T08:31:52.738Z,1416.00
2024-03-18T08:33:07.416Z,1425.00
2024-03-18T08:34:04.489Z,1425.00
2024-03-18T08:34:53.847Z,1426.00
2024-03-18T08:35:52.826Z,1426.00
2024-03-18T08:36:52.824Z,1333.00
2024-03-18T08:37:52.842Z,1301.00
2024-03-18T08:38:52.843Z,1203.00
2024-03-18T08:39:53.628Z,1187.00
2024-03-18T08:40:52.856Z,1141.00
2024-03-18T08:41:52.856Z,1101.00
2024-03-18T08:42:52.816Z,1078.00
2024-03-18T08:43:52.824Z,1080.00
2024-03-18T08:44:52.885Z,1045.00
2024-03-18T08:45:52.832Z,1029.00
2024-03-18T08:46:52.831Z,1037.00
2024-03-18T08:47:52.884Z,1043.00
2024-03-18T08:48:52.853Z,1046.00
2024-03-18T08:49:52.848Z,1047.00
2024-03-18T08:50:52.867Z,1017.00
2024-03-18T08:51:52.825Z,965.00
2024-03-18T08:52:52.832Z,958.00
2024-03-18T08:53:52.850Z,974.00
2024-03-18T08:54:52.870Z,995.00
2024-03-18T08:55:53.015Z,995.00
2024-03-18T08:56:53.068Z,1013.00
2024-03-18T08:57:53.178Z,1018.00
2024-03-18T08:58:53.341Z,1031.00
2024-03-18T08:59:53.370Z,1042.00
2024-03-18T09:00:53.456Z,1058.00
2024-03-18T09:01:53.545Z,1073.00
2024-03-18T09:02:53.609Z,1081.00
2024-03-18T09:03:53.701Z,1088.00
2024-03-18T09:04:53.777Z,1097.00
2024-03-18T09:05:53.893Z,1107.00
2024-03-18T09:06:53.962Z,1118.00
2024-03-18T09:07:54.007Z,1127.00
2024-03-18T09:08:54.148Z,1140.00
2024-03-18T09:09:54.149Z,1147.00
2024-03-18T09:10:54.224Z,1159.00
2024-03-18T09:11:54.291Z,1171.00
2024-03-18T09:12:54.336Z,1188.00
2024-03-18T09:13:54.410Z,1203.00
2024-03-18T09:14:54.464Z,1212.00
2024-03-18T09:15:54.574Z,1228.00
2024-03-18T09:16:54.615Z,1242.00
2024-03-18T09:17:55.585Z,1252.00
2024-03-18T09:18:54.690Z,1239.00
2024-03-18T09:19:54.770Z,1215.00
2024-03-18T09:20:54.757Z,1143.00
2024-03-18T09:21:54.828Z,1089.00
2024-03-18T09:22:54.885Z,1007.00
2024-03-18T09:23:54.982Z,965.00
2024-03-18T09:24:55.039Z,886.00
2024-03-18T09:25:55.126Z,827.00
2024-03-18T09:26:55.272Z,774.00
2024-03-18T09:27:55.282Z,787.00
2024-03-18T09:28:55.368Z,837.00
2024-03-18T09:29:55.455Z,883.00
2024-03-18T09:30:55.602Z,909.00
2024-03-18T09:31:55.659Z,934.00
2024-03-18T09:32:55.743Z,946.00
2024-03-18T09:33:55.781Z,963.00
2024-03-18T09:34:55.879Z,973.00
2024-03-18T09:35:55.923Z,991.00
2024-03-18T09:36:56.046Z,998.00
2024-03-18T09:37:56.065Z,1014.00
2024-03-18T09:38:56.153Z,1027.00
2024-03-18T09:39:56.225Z,1034.00
2024-03-18T09:40:56.277Z,1053.00
2024-03-18T09:41:56.351Z,1056.00
2024-03-18T09:42:56.392Z,1063.00
2024-03-18T09:43:56.454Z,1082.00
2024-03-18T09:44:56.511Z,1088.00
2024-03-18T09:45:56.592Z,1097.00
2024-03-18T09:46:56.607Z,1117.00
2024-03-18T09:47:56.749Z,1138.00
2024-03-18T09:48:56.736Z,1141.00
2024-03-18T09:49:56.806Z,1153.00
2024-03-18T09:50:56.851Z,1166.00
2024-03-18T09:51:56.962Z,1172.00
2024-03-18T09:52:56.967Z,1177.00
2024-03-18T09:53:57.078Z,1161.00
2024-03-18T09:54:57.151Z,1136.00
2024-03-18T09:55:57.201Z,1135.00
2024-03-18T09:56:57.256Z,1135.00
2024-03-18T09:57:57.382Z,1134.00
2024-03-18T09:58:57.424Z,1135.00
2024-03-18T09:59:57.505Z,1158.00
2024-03-18T10:00:57.565Z,1145.00
2024-03-18T10:01:57.700Z,1162.00
2024-03-18T10:02:57.726Z,1146.00
2024-03-18T10:03:57.821Z,1139.00
2024-03-18T10:04:57.894Z,1142.00
2024-03-18T10:05:57.997Z,1102.00
2024-03-18T10:06:58.038Z,1057.00
2024-03-18T10:07:58.114Z,1046.00
2024-03-18T10:08:58.195Z,1021.00
2024-03-18T10:09:58.268Z,993.00
2024-03-18T10:10:58.365Z,985.00
2024-03-18T10:11:58.459Z,989.00
2024-03-18T10:12:58.489Z,992.00
2024-03-18T10:13:58.599Z,1001.00
2024-03-18T10:14:58.636Z,1008.00
2024-03-18T10:15:58.725Z,1024.00
2024-03-18T10:16:59.549Z,1016.00
2024-03-18T10:17:58.785Z,1032.00
2024-03-18T10:18:58.775Z,1046.00
2024-03-18T10:19:58.837Z,1051.00
2024-03-18T10:20:58.842Z,1066.00
2024-03-18T10:21:58.968Z,1073.00
2024-03-18T10:22:58.871Z,1080.00
2024-03-18T10:23:58.912Z,1095.00
2024-03-18T10:24:58.948Z,1107.00
2024-03-18T10:25:58.961Z,1112.00
2024-03-18T10:26:59.022Z,1117.00
2024-03-18T10:27:59.016Z,1142.00
2024-03-18T10:28:59.068Z,1160.00
2024-03-18T10:29:59.119Z,1176.00
2024-03-18T10:30:59.134Z,1189.00
2024-03-18T10:31:59.183Z,1189.00
2024-03-18T10:32:59.193Z,1215.00
2024-03-18T10:33:59.232Z,1216.00
2024-03-18T10:34:59.272Z,1248.00
2024-03-18T10:35:59.276Z,1249.00
2024-03-18T10:36:59.324Z,1257.00
2024-03-18T10:37:59.371Z,1255.00
2024-03-18T10:38:59.405Z,1253.00
2024-03-18T10:39:59.400Z,1269.00
2024-03-18T10:40:59.640Z,1278.00
2024-03-18T10:41:59.555Z,1286.00
2024-03-18T10:42:59.632Z,1283.00
2024-03-18T10:43:59.656Z,1284.00
2024-03-18T10:44:59.620Z,1283.00
2024-03-18T10:45:59.788Z,1285.00
2024-03-18T10:46:59.822Z,1293.00
2024-03-18T10:47:59.792Z,1295.00
2024-03-18T10:48:59.860Z,1275.00
2024-03-18T10:49:59.960Z,1267.00
2024-03-18T10:50:59.994Z,1280.00
2024-03-18T10:52:00.200Z,1262.00
2024-03-18T10:53:00.133Z,1240.00
2024-03-18T10:54:00.254Z,1224.00
2024-03-18T10:55:00.317Z,1217.00
2024-03-18T10:56:00.355Z,1203.00
2024-03-18T10:57:00.601Z,1190.00
2024-03-18T10:58:00.532Z,1165.00
2024-03-18T10:59:00.597Z,1160.00
2024-03-18T11:00:00.702Z,1155.00
2024-03-18T11:01:00.760Z,1136.00
2024-03-18T11:02:00.816Z,1120.00
2024-03-18T11:03:00.898Z,1108.00
2024-03-18T11:04:00.982Z,1098.00
2024-03-18T11:05:01.121Z,1102.00
2024-03-18T11:06:01.144Z,1092.00
2024-03-18T11:07:01.244Z,1072.00
2024-03-18T11:08:01.337Z,1059.00
2024-03-18T11:09:01.401Z,1061.00
2024-03-18T11:10:01.472Z,1043.00
2024-03-18T11:11:01.564Z,1036.00
2024-03-18T11:12:01.655Z,1010.00
2024-03-18T11:13:01.784Z,1010.00
2024-03-18T11:14:01.898Z,1006.00
2024-03-18T11:15:01.933Z,986.00
2024-03-18T11:16:02.055Z,970.00
2024-03-18T11:17:03.960Z,961.00
2024-03-18T11:18:02.123Z,959.00
2024-03-18T11:19:02.148Z,954.00
2024-03-18T11:20:02.135Z,929.00
2024-03-18T11:21:02.178Z,906.00
2024-03-18T11:22:02.138Z,906.00
2024-03-18T11:23:02.167Z,889.00
2024-03-18T11:24:02.143Z,884.00
2024-03-18T11:25:02.267Z,868.00
2024-03-18T11:26:02.165Z,861.00
2024-03-18T11:27:02.169Z,856.00
2024-03-18T11:28:02.158Z,853.00
2024-03-18T11:29:02.168Z,837.00
2024-03-18T11:30:02.174Z,823.00
2024-03-18T11:31:02.150Z,817.00
2024-03-18T11:32:02.205Z,815.00
2024-03-18T11:33:02.151Z,801.00
2024-03-18T11:34:02.187Z,798.00
2024-03-18T11:35:02.159Z,793.00
2024-03-18T11:36:02.166Z,790.00
2024-03-18T11:37:02.171Z,771.00
2024-03-18T11:38:02.226Z,762.00
2024-03-18T11:39:05.985Z,745.00
2024-03-18T11:40:02.234Z,745.00
2024-03-18T11:41:02.209Z,746.00
2024-03-18T11:42:02.155Z,724.00
2024-03-18T11:43:02.169Z,713.00
2024-03-18T11:44:02.234Z,713.00
2024-03-18T11:45:02.179Z,729.00
2024-03-18T11:46:02.213Z,733.00
2024-03-18T11:47:02.167Z,744.00
2024-03-18T11:48:02.198Z,738.00
2024-03-18T11:49:02.164Z,752.00
2024-03-18T11:50:02.199Z,747.00
2024-03-18T11:51:02.654Z,753.00
2024-03-18T11:52:02.199Z,752.00
2024-03-18T11:53:02.206Z,761.00
2024-03-18T11:54:02.208Z,765.00
2024-03-18T11:55:02.188Z,766.00
2024-03-18T11:56:02.232Z,771.00
2024-03-18T11:57:02.203Z,769.00
2024-03-18T11:58:02.178Z,776.00
2024-03-18T11:59:02.299Z,782.00
2024-03-18T12:00:02.482Z,773.00
2024-03-18T12:01:04.543Z,773.00
2024-03-18T12:02:02.535Z,774.00
2024-03-18T12:03:02.550Z,775.00
2024-03-18T12:04:02.537Z,776.00
2024-03-18T12:05:02.535Z,778.00
2024-03-18T12:06:02.645Z,787.00
2024-03-18T12:07:02.536Z,788.00
2024-03-18T12:08:02.548Z,784.00
2024-03-18T12:09:02.562Z,780.00
2024-03-18T12:10:02.545Z,790.00
2024-03-18T12:11:02.545Z,794.00
2024-03-18T12:12:02.557Z,789.00
2024-03-18T12:13:04.756Z,790.00
2024-03-18T12:14:02.555Z,810.00
2024-03-18T12:15:02.631Z,800.00
2024-03-18T12:16:02.678Z,798.00
2024-03-18T12:17:11.239Z,801.00
2024-03-18T12:18:03.745Z,802.00
2024-03-18T12:19:02.786Z,803.00
2024-03-18T12:20:02.746Z,804.00
2024-03-18T12:21:02.740Z,803.00
2024-03-18T12:22:02.765Z,806.00
2024-03-18T12:23:02.783Z,806.00